Time;durP1;ratioP1;P1;durP2;ratioP2;P2;SDS_P1;SDS_P2;PMS_P1;PMS_P2;Temp;Humidity;BMP_temperature;BMP_pressure;BME280_temperature;BME280_humidity;BME280_pressure;Samples;Min_cycle;Max_cycle;Signal;HPM_P1;HPM_P2
2023/12/25 00:01:50;;;;;;;2.05;1.10;;;10.40;99.90;;;;;;5022715;28;20044;-53
2023/12/25 00:04:17;;;;;;;2.13;0.90;;;10.40;99.90;;;;;;5029786;28;20136;-55
2023/12/25 00:06:43;;;;;;;1.52;1.02;;;10.40;99.90;;;;;;5025007;28;20064;-55
2023/12/25 00:09:10;;;;;;;1.85;0.95;;;10.40;99.90;;;;;;5022001;28;20045;-55
2023/12/25 00:11:37;;;;;;;2.42;1.08;;;10.40;99.90;;;;;;5015425;28;20045;-56
2023/12/25 00:14:04;;;;;;;1.58;0.90;;;10.40;99.90;;;;;;5013647;28;20403;-53
2023/12/25 00:16:30;;;;;;;1.75;1.02;;;10.40;99.90;;;;;;5021764;28;20046;-58
2023/12/25 00:18:58;;;;;;;1.02;0.70;;;10.40;99.90;;;;;;5020433;28;20617;-57
2023/12/25 00:21:26;;;;;;;1.98;0.90;;;10.50;99.90;;;;;;5023738;28;20069;-55
2023/12/25 00:23:54;;;;;;;1.67;0.75;;;10.50;99.90;;;;;;5029346;28;20467;-54
2023/12/25 00:26:21;;;;;;;1.40;0.80;;;10.50;99.90;;;;;;5026277;28;20530;-58
2023/12/25 00:28:54;;;;;;;4.85;0.82;;;10.60;99.90;;;;;;5020468;28;20091;-55
2023/12/25 00:31:21;;;;;;;1.08;0.70;;;10.60;99.90;;;;;;5023627;28;20064;-55
2023/12/25 00:33:48;;;;;;;1.40;0.80;;;10.60;99.90;;;;;;5023740;28;20121;-54
2023/12/25 00:36:15;;;;;;;1.58;0.93;;;10.60;99.90;;;;;;5023160;28;20110;-56
2023/12/25 00:38:42;;;;;;;1.05;0.68;;;10.60;99.90;;;;;;5021085;28;20049;-53
2023/12/25 00:41:09;;;;;;;1.95;0.80;;;10.60;99.90;;;;;;5022098;28;20051;-53
2023/12/25 00:43:36;;;;;;;;;;;10.50;99.90;;;;;;5015500;28;20401;-54
2023/12/25 00:46:06;;;;;;;1.35;0.75;;;10.50;99.90;;;;;;5011430;28;20289;-58
2023/12/25 00:48:33;;;;;;;1.98;0.70;;;10.60;99.90;;;;;;5004188;28;20133;-57
2023/12/25 00:51:00;;;;;;;1.58;0.82;;;10.60;99.90;;;;;;5024502;28;20440;-54
2023/12/25 00:53:27;;;;;;;;;;;10.60;99.90;;;;;;5028191;28;20437;-53
2023/12/25 00:55:54;;;;;;;1.75;0.80;;;10.60;99.90;;;;;;5022725;28;20386;-55
2023/12/25 00:58:21;;;;;;;1.17;0.80;;;10.60;99.90;;;;;;5014559;28;20487;-53
2023/12/25 01:00:48;;;;;;;1.38;0.70;;;10.50;99.90;;;;;;5022436;28;20053;-53
2023/12/25 01:03:16;;;;;;;1.05;0.70;;;10.60;99.90;;;;;;5000635;28;20046;-55
2023/12/25 01:05:43;;;;;;;1.05;0.55;;;10.60;99.90;;;;;;5001132;28;20042;-54
2023/12/25 01:08:10;;;;;;;1.48;0.70;;;10.60;99.90;;;;;;5008621;28;20412;-53
2023/12/25 01:10:36;;;;;;;0.68;0.60;;;10.60;99.90;;;;;;5002478;28;20136;-56
2023/12/25 01:13:03;;;;;;;1.52;0.73;;;10.70;99.90;;;;;;5007877;28;20073;-55
2023/12/25 01:15:30;;;;;;;1.10;0.50;;;10.70;99.90;;;;;;5004575;28;20049;-54
2023/12/25 01:17:57;;;;;;;1.38;0.80;;;10.80;99.90;;;;;;5004508;28;20457;-56
2023/12/25 01:20:25;;;;;;;0.63;0.40;;;10.80;99.90;;;;;;5009605;28;20061;-55
2023/12/25 01:22:51;;;;;;;1.92;0.60;;;10.80;99.90;;;;;;4996865;28;20410;-54
2023/12/25 01:25:18;;;;;;;1.50;0.60;;;10.90;99.90;;;;;;5006115;28;20050;-55
2023/12/25 01:27:46;;;;;;;0.98;0.60;;;10.80;99.90;;;;;;5024326;28;20038;-55
2023/12/25 01:30:13;;;;;;;1.52;0.60;;;10.80;99.90;;;;;;5020401;28;20045;-54
2023/12/25 01:32:40;;;;;;;1.33;0.70;;;10.90;99.90;;;;;;5022898;28;20052;-54
2023/12/25 01:35:08;;;;;;;1.02;0.60;;;10.90;99.90;;;;;;5009313;28;20041;-55
2023/12/25 01:37:35;;;;;;;0.68;0.40;;;10.90;99.90;;;;;;5013803;28;20068;-56
2023/12/25 01:40:02;;;;;;;0.75;0.60;;;10.90;99.90;;;;;;5028888;28;20041;-54
2023/12/25 01:42:29;;;;;;;;;;;10.90;99.90;;;;;;5032706;28;20368;-56
2023/12/25 01:44:57;;;;;;;0.87;0.57;;;10.90;99.90;;;;;;5002607;28;19978;-54
2023/12/25 01:47:24;;;;;;;2.80;0.70;;;11.00;99.90;;;;;;5019711;28;20100;-55
2023/12/25 01:49:51;;;;;;;0.82;0.52;;;11.00;99.90;;;;;;5023706;28;20107;-54
2023/12/25 01:52:18;;;;;;;1.08;0.70;;;11.00;99.90;;;;;;5013494;28;20056;-55
2023/12/25 01:54:46;;;;;;;0.70;0.70;;;11.00;99.90;;;;;;5021785;28;20069;-54
2023/12/25 01:57:13;;;;;;;0.95;0.50;;;11.00;99.90;;;;;;5017813;28;20125;-54
2023/12/25 01:59:40;;;;;;;0.90;0.40;;;11.00;99.90;;;;;;4999480;28;20049;-53
2023/12/25 02:02:07;;;;;;;2.20;1.02;;;11.00;99.90;;;;;;5010668;28;20038;-55
2023/12/25 02:04:34;;;;;;;1.20;0.57;;;11.10;99.90;;;;;;5021216;28;20034;-53
2023/12/25 02:07:01;;;;;;;1.13;0.70;;;11.10;99.90;;;;;;5027610;28;20034;-56
2023/12/25 02:09:28;;;;;;;2.17;0.60;;;11.00;99.90;;;;;;5006295;28;20053;-54
2023/12/25 02:11:56;;;;;;;1.63;0.68;;;11.00;99.90;;;;;;5006687;28;20068;-54
2023/12/25 02:14:23;;;;;;;0.82;0.43;;;11.00;99.90;;;;;;5015702;28;20407;-56
2023/12/25 02:16:51;;;;;;;0.65;0.40;;;11.10;99.90;;;;;;4999872;28;20099;-56
2023/12/25 02:19:31;;;;;;;1.02;0.60;;;11.10;99.90;;;;;;5024967;28;20053;-53
2023/12/25 02:21:59;;;;;;;1.52;0.50;;;11.10;99.90;;;;;;5027125;28;20037;-53
2023/12/25 02:24:32;;;;;;;0.52;0.47;;;11.00;99.90;;;;;;5027278;28;20565;-54
2023/12/25 02:26:59;;;;;;;1.75;0.75;;;11.00;99.90;;;;;;5030930;28;20486;-55
2023/12/25 02:29:26;;;;;;;1.20;0.40;;;11.00;99.90;;;;;;5031355;28;20063;-54
2023/12/25 02:31:53;;;;;;;0.75;0.50;;;11.00;99.90;;;;;;5012131;28;20128;-55
2023/12/25 02:34:22;;;;;;;1.15;0.40;;;11.00;99.90;;;;;;5030808;28;20490;-58
2023/12/25 02:36:49;;;;;;;0.80;0.40;;;11.00;99.90;;;;;;5020779;28;20092;-56
2023/12/25 02:39:17;;;;;;;0.50;0.45;;;11.10;99.90;;;;;;5012991;28;20052;-56
2023/12/25 02:41:44;;;;;;;0.60;0.40;;;11.00;99.90;;;;;;5030950;28;20045;-56
2023/12/25 02:44:11;;;;;;;0.40;0.40;;;11.00;99.90;;;;;;5029356;28;20483;-59
2023/12/25 02:46:42;;;;;;;0.57;0.52;;;11.00;99.90;;;;;;5027444;28;20076;-54
2023/12/25 02:49:09;;;;;;;0.95;0.50;;;11.00;99.90;;;;;;5020717;28;20045;-58
2023/12/25 02:51:36;;;;;;;0.88;0.50;;;10.90;99.90;;;;;;5013180;28;20471;-56
2023/12/25 02:54:03;;;;;;;1.02;0.73;;;11.00;99.90;;;;;;5027105;28;20037;-58
2023/12/25 02:56:29;;;;;;;0.65;0.40;;;10.90;99.90;;;;;;5012627;28;20441;-54
2023/12/25 02:58:56;;;;;;;1.52;0.40;;;10.90;99.90;;;;;;5012858;28;20092;-55
2023/12/25 03:01:23;;;;;;;1.45;0.57;;;10.90;99.90;;;;;;5013578;28;20037;-57
2023/12/25 03:03:51;;;;;;;1.15;0.60;;;10.80;99.90;;;;;;5024375;28;20034;-57
2023/12/25 03:06:18;;;;;;;2.22;0.47;;;10.80;99.90;;;;;;5011909;28;20081;-54
2023/12/25 03:08:45;;;;;;;0.88;0.60;;;10.70;99.90;;;;;;5012494;28;20083;-56
2023/12/25 03:11:12;;;;;;;2.40;0.60;;;10.70;99.90;;;;;;5029978;28;20120;-56
2023/12/25 03:13:38;;;;;;;1.08;0.50;;;10.60;99.90;;;;;;5030925;28;20045;-56
2023/12/25 03:16:06;;;;;;;0.40;0.30;;;10.50;99.90;;;;;;5023604;28;20045;-57
2023/12/25 03:18:33;;;;;;;0.90;0.50;;;10.60;99.90;;;;;;5013035;28;20050;-57
2023/12/25 03:21:02;;;;;;;1.08;0.50;;;10.60;99.90;;;;;;5012835;28;20114;-54
2023/12/25 03:23:29;;;;;;;1.30;0.50;;;10.60;99.90;;;;;;5020252;28;20132;-58
2023/12/25 03:25:56;;;;;;;0.73;0.50;;;10.50;99.90;;;;;;5027873;28;20502;-56
2023/12/25 03:28:23;;;;;;;0.57;0.50;;;10.40;99.90;;;;;;5012427;28;20529;-56
2023/12/25 03:30:50;;;;;;;1.10;0.50;;;10.40;99.90;;;;;;5030586;28;20045;-54
2023/12/25 03:33:17;;;;;;;0.77;0.52;;;10.40;99.90;;;;;;5017987;28;20045;-58
2023/12/25 03:35:45;;;;;;;1.98;0.57;;;10.30;99.90;;;;;;5030230;28;20046;-54
2023/12/25 03:38:12;;;;;;;0.82;0.50;;;10.30;99.90;;;;;;5012317;28;20544;-56
2023/12/25 03:40:39;;;;;;;1.20;0.50;;;10.30;99.90;;;;;;5027440;28;20375;-54
2023/12/25 03:43:06;;;;;;;0.50;0.40;;;10.30;99.90;;;;;;5030808;28;20120;-58
2023/12/25 03:45:33;;;;;;;1.50;0.50;;;10.30;99.90;;;;;;5029448;28;20133;-54
2023/12/25 03:48:00;;;;;;;1.05;0.40;;;10.30;99.90;;;;;;5011042;28;20522;-57
2023/12/25 03:50:27;;;;;;;1.23;0.40;;;10.30;99.90;;;;;;5030639;28;20046;-56
2023/12/25 03:52:54;;;;;;;1.45;0.60;;;10.30;99.90;;;;;;5030026;28;20529;-57
2023/12/25 03:55:21;;;;;;;0.63;0.52;;;10.30;99.90;;;;;;5027002;28;20073;-54
2023/12/25 03:57:48;;;;;;;1.52;0.60;;;10.30;99.90;;;;;;5025527;28;20052;-57
2023/12/25 04:00:15;;;;;;;1.75;0.65;;;10.30;99.90;;;;;;5030277;28;20041;-56
2023/12/25 04:02:42;;;;;;;0.70;0.52;;;10.30;99.90;;;;;;5012655;28;20104;-56
2023/12/25 04:05:09;;;;;;;0.60;0.40;;;10.30;99.90;;;;;;5021687;28;20038;-56
2023/12/25 04:07:37;;;;;;;1.48;0.70;;;10.20;99.90;;;;;;5026700;28;20479;-56
2023/12/25 04:10:05;;;;;;;1.42;0.47;;;10.10;99.90;;;;;;5014702;28;20042;-54
2023/12/25 04:12:32;;;;;;;1.00;0.52;;;10.00;99.90;;;;;;5011638;28;20149;-56
2023/12/25 04:14:59;;;;;;;1.33;0.40;;;9.90;99.90;;;;;;5030263;28;20045;-56
2023/12/25 04:17:26;;;;;;;1.05;0.70;;;9.90;99.90;;;;;;5015627;28;20621;-56
2023/12/25 04:19:53;;;;;;;1.23;0.50;;;9.80;99.90;;;;;;5016145;28;20107;-56
2023/12/25 04:22:20;;;;;;;1.10;0.50;;;9.80;99.90;;;;;;5014542;28;20046;-55
2023/12/25 04:24:47;;;;;;;1.85;0.57;;;9.80;99.90;;;;;;5015843;28;20049;-54
2023/12/25 04:27:14;;;;;;;1.05;0.57;;;9.70;99.90;;;;;;5007274;28;20076;-54
2023/12/25 04:29:41;;;;;;;1.20;0.60;;;9.60;99.90;;;;;;5012091;28;20084;-57
2023/12/25 04:32:08;;;;;;;1.50;0.60;;;9.50;99.90;;;;;;5008023;28;20568;-54
2023/12/25 04:34:36;;;;;;;1.40;0.50;;;9.50;99.90;;;;;;5015553;28;20038;-55
2023/12/25 04:37:03;;;;;;;;;;;9.50;99.90;;;;;;5012274;28;20041;-54
2023/12/25 04:39:29;;;;;;;0.70;0.50;;;9.50;99.90;;;;;;5004086;28;20357;-54
2023/12/25 04:41:56;;;;;;;1.95;0.40;;;9.50;99.90;;;;;;5005591;28;20033;-57
2023/12/25 04:44:23;;;;;;;2.92;0.40;;;9.50;99.90;;;;;;4999510;28;20136;-58
2023/12/25 04:46:50;;;;;;;1.90;0.77;;;9.40;99.90;;;;;;5008911;28;20136;-55
2023/12/25 04:49:17;;;;;;;3.60;0.90;;;9.40;99.90;;;;;;5014740;28;20037;-55
2023/12/25 04:51:44;;;;;;;1.48;0.90;;;9.30;99.90;;;;;;5014505;28;20038;-56
2023/12/25 04:54:11;;;;;;;1.63;1.00;;;9.20;99.90;;;;;;5032391;28;20422;-56
2023/12/25 04:56:37;;;;;;;3.30;1.05;;;9.10;99.90;;;;;;5008466;28;20065;-55
2023/12/25 04:59:05;;;;;;;;;;;9.10;99.90;;;;;;5017292;28;20518;-59
2023/12/25 05:01:32;;;;;;;1.90;1.00;;;9.00;99.90;;;;;;5023920;28;19986;-57
2023/12/25 05:03:59;;;;;;;1.90;1.05;;;9.00;99.90;;;;;;5029290;28;20053;-56
2023/12/25 05:06:26;;;;;;;3.55;1.50;;;8.90;99.90;;;;;;5013907;28;20057;-57
2023/12/25 05:08:54;;;;;;;3.20;1.00;;;8.90;99.90;;;;;;5014822;28;20041;-56
2023/12/25 05:11:23;;;;;;;2.45;1.40;;;8.90;99.90;;;;;;5031125;28;20052;-55
2023/12/25 05:13:50;;;;;;;1.75;1.30;;;8.90;99.90;;;;;;5010762;28;20486;-55
2023/12/25 05:16:17;;;;;;;3.65;1.20;;;8.80;99.90;;;;;;5032270;28;20406;-58
2023/12/25 05:18:45;;;;;;;2.38;1.30;;;8.80;99.90;;;;;;5032051;28;20111;-57
2023/12/25 05:21:12;;;;;;;1.90;1.08;;;8.80;99.90;;;;;;5023885;28;20076;-56
2023/12/25 05:23:38;;;;;;;2.38;1.20;;;8.80;99.90;;;;;;5032161;28;20040;-56
2023/12/25 05:26:05;;;;;;;2.72;1.27;;;8.80;99.90;;;;;;5031630;28;20047;-56
2023/12/25 05:28:32;;;;;;;2.83;1.80;;;8.80;99.90;;;;;;5032297;28;20449;-55
2023/12/25 05:30:59;;;;;;;1.80;1.17;;;8.80;99.90;;;;;;5023373;28;20121;-58
2023/12/25 05:33:26;;;;;;;1.42;1.13;;;8.80;99.90;;;;;;5032207;28;20549;-58
2023/12/25 05:35:53;;;;;;;3.13;1.40;;;8.70;99.90;;;;;;5018274;28;20154;-56
2023/12/25 05:38:20;;;;;;;3.00;1.40;;;8.70;99.90;;;;;;5027807;28;20590;-59
2023/12/25 05:40:47;;;;;;;3.97;1.88;;;8.60;99.90;;;;;;5027821;28;20045;-58
2023/12/25 05:43:14;;;;;;;3.95;2.13;;;8.60;99.90;;;;;;5031061;28;20049;-55
2023/12/25 05:45:41;;;;;;;;;;;8.50;99.90;;;;;;5021953;28;20033;-57
2023/12/25 05:48:08;;;;;;;7.20;3.08;;;8.50;99.90;;;;;;5028469;28;19921;-57
2023/12/25 05:50:35;;;;;;;9.98;4.15;;;8.50;99.90;;;;;;5013085;28;20059;-54
2023/12/25 05:53:02;;;;;;;8.32;2.70;;;8.50;99.90;;;;;;5031124;28;20041;-54
2023/12/25 05:55:29;;;;;;;11.50;3.00;;;8.50;99.90;;;;;;5030571;28;20128;-57
2023/12/25 05:57:56;;;;;;;3.90;1.83;;;8.50;99.90;;;;;;5029486;28;20041;-58
2023/12/25 06:00:23;;;;;;;2.30;1.63;;;8.40;99.90;;;;;;5020322;28;20037;-54
2023/12/25 06:02:50;;;;;;;6.38;2.35;;;8.40;99.90;;;;;;5027052;28;20124;-56
2023/12/25 06:05:16;;;;;;;6.45;2.63;;;8.40;99.90;;;;;;5029880;28;20073;-55
2023/12/25 06:07:43;;;;;;;6.82;3.35;;;8.30;99.90;;;;;;5031332;28;20041;-56
2023/12/25 06:10:10;;;;;;;5.65;2.33;;;8.30;99.90;;;;;;5018834;28;20050;-55
2023/12/25 06:12:37;;;;;;;3.28;2.10;;;8.30;99.90;;;;;;5031825;28;20041;-55
2023/12/25 06:15:05;;;;;;;3.47;1.70;;;8.30;99.90;;;;;;5031057;28;20490;-55
2023/12/25 06:17:33;;;;;;;5.60;1.77;;;8.20;99.90;;;;;;5029372;28;20099;-57
2023/12/25 06:20:00;;;;;;;3.47;1.60;;;8.20;99.90;;;;;;5022900;28;20049;-55
2023/12/25 06:22:26;;;;;;;3.90;1.70;;;8.10;99.90;;;;;;5023382;28;20112;-56
2023/12/25 06:24:55;;;;;;;3.15;2.13;;;8.00;99.90;;;;;;5030998;28;20037;-57
2023/12/25 06:27:23;;;;;;;2.88;1.98;;;8.00;99.90;;;;;;5024055;28;22306;-57
2023/12/25 06:29:50;;;;;;;3.00;1.75;;;8.00;99.90;;;;;;5008563;28;20099;-54
2023/12/25 06:32:17;;;;;;;2.92;1.95;;;8.00;99.90;;;;;;5030712;28;20076;-58
2023/12/25 06:34:43;;;;;;;3.97;2.13;;;7.90;99.90;;;;;;5012239;28;20041;-56
2023/12/25 06:37:10;;;;;;;3.78;1.92;;;7.90;99.90;;;;;;5026653;28;20041;-56
2023/12/25 06:39:37;;;;;;;3.33;1.95;;;7.90;99.90;;;;;;5031417;28;20045;-57
2023/12/25 06:42:04;;;;;;;6.07;2.20;;;7.80;99.90;;;;;;5030973;28;20041;-54
2023/12/25 06:44:31;;;;;;;4.22;2.53;;;7.80;99.90;;;;;;5029618;28;20033;-55
2023/12/25 06:46:57;;;;;;;3.78;2.47;;;7.70;99.90;;;;;;5028465;28;20030;-56
2023/12/25 06:49:24;;;;;;;6.35;3.20;;;7.70;99.90;;;;;;5027881;28;20037;-56
2023/12/25 06:51:51;;;;;;;10.40;4.85;;;7.70;99.90;;;;;;5018455;28;20050;-55
2023/12/25 06:54:18;;;;;;;10.43;6.10;;;7.60;99.90;;;;;;5029881;28;20049;-53
2023/12/25 06:56:45;;;;;;;12.60;7.88;;;7.60;99.90;;;;;;5021116;28;20491;-55
2023/12/25 06:59:11;;;;;;;8.05;4.55;;;7.50;99.90;;;;;;5031075;28;20049;-56
2023/12/25 07:01:38;;;;;;;6.07;4.22;;;7.50;99.90;;;;;;5030124;28;20044;-57
2023/12/25 07:04:06;;;;;;;4.50;3.20;;;7.50;99.90;;;;;;5029768;28;20044;-58
2023/12/25 07:06:33;;;;;;;6.85;3.17;;;7.40;99.90;;;;;;5023337;28;20038;-55
2023/12/25 07:09:00;;;;;;;5.90;3.42;;;7.40;99.90;;;;;;5030774;28;20133;-57
2023/12/25 07:11:27;;;;;;;10.75;5.68;;;7.40;99.90;;;;;;5030960;28;20539;-54
2023/12/25 07:13:59;;;;;;;12.80;4.90;;;7.40;99.90;;;;;;5029005;28;20133;-58
2023/12/25 07:16:26;;;;;;;67.63;26.65;;;7.30;99.90;;;;;;5030495;28;20715;-56
2023/12/25 07:18:54;;;;;;;13.20;6.35;;;7.30;99.90;;;;;;5030663;28;20045;-56
2023/12/25 07:21:21;;;;;;;10.85;5.15;;;7.30;99.90;;;;;;5029578;28;20069;-57
2023/12/25 07:23:48;;;;;;;11.52;7.32;;;7.20;99.90;;;;;;5030864;28;20406;-56
2023/12/25 07:26:18;;;;;;;10.68;4.50;;;7.30;99.90;;;;;;5029760;28;20060;-57
2023/12/25 07:28:46;;;;;;;7.57;3.65;;;7.30;99.90;;;;;;5026916;28;20038;-57
2023/12/25 07:31:14;;;;;;;11.52;4.80;;;7.20;99.90;;;;;;5030852;28;20478;-56
2023/12/25 07:33:42;;;;;;;6.88;4.15;;;7.20;99.90;;;;;;5030341;28;20044;-55
2023/12/25 07:36:09;;;;;;;;;;;7.30;99.90;;;;;;5027866;28;20130;-54
2023/12/25 07:38:37;;;;;;;7.53;5.03;;;7.30;99.90;;;;;;5020014;28;19921;-55
2023/12/25 07:41:08;;;;;;;5.25;3.15;;;7.30;99.90;;;;;;5027179;28;20073;-56
2023/12/25 07:43:38;;;;;;;5.63;3.17;;;7.30;99.90;;;;;;5024952;28;20104;-56
2023/12/25 07:46:06;;;;;;;5.75;3.40;;;7.20;99.90;;;;;;5034397;28;20521;-55
2023/12/25 07:48:34;;;;;;;5.35;2.83;;;7.20;99.90;;;;;;5021578;28;20490;-55
2023/12/25 07:51:01;;;;;;;6.97;3.92;;;7.20;99.90;;;;;;5034343;28;20045;-55
2023/12/25 07:53:29;;;;;;;9.48;5.35;;;7.20;99.90;;;;;;5033655;28;20138;-56
2023/12/25 07:55:56;;;;;;;8.95;5.50;;;7.30;99.90;;;;;;5031879;28;20111;-55
2023/12/25 07:58:23;;;;;;;9.27;5.60;;;7.30;99.90;;;;;;5016288;28;20055;-55
2023/12/25 08:00:49;;;;;;;11.20;6.00;;;7.30;99.90;;;;;;5033429;28;20121;-55
2023/12/25 08:03:16;;;;;;;9.98;6.35;;;7.30;99.90;;;;;;5034009;28;20045;-56
2023/12/25 08:05:43;;;;;;;14.75;7.20;;;7.30;99.90;;;;;;5031678;28;20037;-55
2023/12/25 08:08:10;;;;;;;15.73;7.05;;;7.30;99.90;;;;;;5033832;28;20561;-57
2023/12/25 08:10:37;;;;;;;15.35;8.02;;;7.30;99.90;;;;;;5033509;28;20052;-56
2023/12/25 08:13:04;;;;;;;10.07;6.50;;;7.30;99.90;;;;;;5031481;28;20057;-58
2023/12/25 08:15:31;;;;;;;13.70;7.40;;;7.30;99.90;;;;;;5033694;28;20073;-54
2023/12/25 08:17:59;;;;;;;6.60;4.50;;;7.30;99.90;;;;;;5033320;28;20033;-54
2023/12/25 08:20:27;;;;;;;10.07;4.43;;;7.30;99.90;;;;;;5031942;28;20461;-56
2023/12/25 08:22:53;;;;;;;6.07;3.92;;;7.30;99.90;;;;;;5027189;28;20116;-58
2023/12/25 08:25:20;;;;;;;11.65;5.60;;;7.40;99.90;;;;;;5033442;28;20061;-56
2023/12/25 08:27:47;;;;;;;10.35;4.80;;;7.40;99.90;;;;;;5033234;28;20037;-54
2023/12/25 08:30:14;;;;;;;9.43;3.85;;;7.40;99.90;;;;;;5030441;28;20447;-58
2023/12/25 08:32:41;;;;;;;8.52;3.70;;;7.40;99.90;;;;;;5033699;28;20120;-57
2023/12/25 08:35:08;;;;;;;7.82;3.88;;;7.40;99.90;;;;;;5033237;28;20033;-57
2023/12/25 08:37:34;;;;;;;6.78;3.53;;;7.40;99.90;;;;;;5023967;28;20055;-56
2023/12/25 08:40:03;;;;;;;9.50;4.55;;;7.40;99.90;;;;;;5021862;28;20048;-56
2023/12/25 08:42:30;;;;;;;11.13;4.43;;;7.40;99.90;;;;;;5019131;28;20045;-57
2023/12/25 08:44:57;;;;;;;8.07;4.13;;;7.40;99.90;;;;;;5016528;28;20042;-58
2023/12/25 08:47:24;;;;;;;10.82;5.60;;;7.40;99.90;;;;;;5017805;28;20131;-56
2023/12/25 08:49:51;;;;;;;12.30;5.45;;;7.50;99.90;;;;;;5029389;28;20105;-58
2023/12/25 08:52:18;;;;;;;12.43;5.75;;;7.60;99.90;;;;;;5029915;28;20045;-58
2023/12/25 08:54:45;;;;;;;11.02;5.28;;;7.80;99.90;;;;;;5032272;28;20042;-59
2023/12/25 08:57:12;;;;;;;8.68;4.43;;;7.90;99.90;;;;;;5028202;28;20116;-53
2023/12/25 08:59:39;;;;;;;9.90;5.30;;;8.00;99.90;;;;;;5026213;28;20034;-54
2023/12/25 09:02:06;;;;;;;7.45;4.00;;;8.20;99.90;;;;;;5030669;28;20038;-55
2023/12/25 09:04:32;;;;;;;8.50;3.00;;;8.20;99.90;;;;;;5032155;28;20037;-57
2023/12/25 09:06:59;;;;;;;8.85;3.53;;;8.40;99.90;;;;;;5032736;28;20037;-58
2023/12/25 09:09:26;;;;;;;7.20;3.85;;;8.60;99.90;;;;;;5027791;28;20392;-56
2023/12/25 09:11:53;;;;;;;10.88;4.97;;;8.70;99.90;;;;;;5033050;28;20048;-57
2023/12/25 09:14:20;;;;;;;8.15;4.10;;;8.90;99.90;;;;;;5032301;28;20050;-59
2023/12/25 09:16:47;;;;;;;7.32;4.10;;;9.00;99.90;;;;;;5032592;28;20038;-53
2023/12/25 09:19:14;;;;;;;9.25;5.18;;;8.90;99.90;;;;;;5030629;28;20049;-54
2023/12/25 09:21:40;;;;;;;8.18;5.05;;;8.90;99.90;;;;;;5032765;28;20095;-55
2023/12/25 09:24:07;;;;;;;9.57;5.30;;;8.90;99.90;;;;;;5014457;28;20041;-58
2023/12/25 09:26:34;;;;;;;8.30;4.45;;;9.00;99.90;;;;;;5032315;28;20468;-55
2023/12/25 09:29:01;;;;;;;13.73;4.88;;;9.00;99.90;;;;;;5030425;28;20116;-55
2023/12/25 09:31:28;;;;;;;8.20;4.47;;;9.00;99.90;;;;;;5032465;28;20065;-56
2023/12/25 09:33:55;;;;;;;10.02;4.68;;;9.10;99.90;;;;;;5031974;28;20038;-54
2023/12/25 09:36:24;;;;;;;13.27;6.38;;;9.20;99.90;;;;;;5010961;28;20058;-55
2023/12/25 09:38:51;;;;;;;27.90;11.00;;;9.10;99.90;;;;;;5029617;28;20037;-53
2023/12/25 09:41:18;;;;;;;21.65;8.68;;;9.20;99.90;;;;;;5032411;28;20084;-54
2023/12/25 09:43:47;;;;;;;25.75;13.77;;;9.20;99.90;;;;;;5029766;28;20494;-60
2023/12/25 09:46:15;;;;;;;13.13;6.45;;;9.20;99.90;;;;;;5024237;28;20387;-57
2023/12/25 09:48:42;;;;;;;8.88;4.82;;;9.20;99.90;;;;;;5024895;28;20049;-59
2023/12/25 09:51:11;;;;;;;8.85;4.57;;;9.20;99.90;;;;;;5031659;28;20492;-56
2023/12/25 09:53:38;;;;;;;12.43;5.15;;;9.20;99.90;;;;;;5031455;28;20045;-56
2023/12/25 09:56:08;;;;;;;10.38;5.70;;;9.10;99.90;;;;;;5026268;28;20418;-61
2023/12/25 09:58:35;;;;;;;10.10;5.82;;;9.00;99.90;;;;;;5030316;28;20498;-60
2023/12/25 10:01:02;;;;;;;19.02;8.18;;;9.10;99.90;;;;;;5027292;28;20060;-60
2023/12/25 10:03:32;;;;;;;9.98;5.15;;;9.10;99.90;;;;;;5029550;28;20195;-60
2023/12/25 10:05:59;;;;;;;8.45;4.50;;;9.10;99.90;;;;;;5027886;28;20482;-60
2023/12/25 10:08:27;;;;;;;13.02;7.30;;;9.20;99.90;;;;;;5027810;28;20029;-59
2023/12/25 10:10:54;;;;;;;21.20;12.07;;;9.10;99.90;;;;;;5020936;28;20057;-59
2023/12/25 10:13:25;;;;;;;16.58;8.60;;;9.10;99.90;;;;;;5031797;28;20386;-58
2023/12/25 10:15:52;;;;;;;13.38;6.03;;;9.10;99.90;;;;;;5031428;28;20387;-60
2023/12/25 10:18:19;;;;;;;13.00;7.38;;;9.10;99.90;;;;;;5029748;28;20103;-59
2023/12/25 10:20:57;;;;;;;16.48;8.00;;;9.10;99.90;;;;;;5031574;28;20042;-60
2023/12/25 10:23:28;;;;;;;10.80;5.82;;;9.00;99.90;;;;;;5025336;28;20061;-60
2023/12/25 10:25:59;;;;;;;21.00;11.50;;;9.10;99.90;;;;;;5024845;28;20120;-60
2023/12/25 10:28:28;;;;;;;19.17;10.32;;;9.10;99.90;;;;;;5016601;28;20044;-61
2023/12/25 10:31:03;;;;;;;14.43;8.38;;;9.10;99.90;;;;;;5019005;28;20038;-60
2023/12/25 10:33:31;;;;;;;8.18;4.70;;;9.20;99.90;;;;;;5019437;28;20132;-60
2023/12/25 10:36:09;;;;;;;9.55;4.43;;;9.30;99.90;;;;;;5011677;28;20498;-59
2023/12/25 10:38:42;;;;;;;12.32;5.53;;;9.30;99.90;;;;;;5019052;28;20045;-60
2023/12/25 10:41:22;;;;;;;20.83;10.48;;;9.40;99.90;;;;;;5019564;28;20590;-61
2023/12/25 10:43:57;;;;;;;20.48;10.10;;;9.40;99.90;;;;;;5017344;28;20046;-61
2023/12/25 10:46:29;;;;;;;22.75;11.05;;;9.50;99.90;;;;;;5027052;28;20126;-60
2023/12/25 10:48:57;;;;;;;11.95;6.20;;;9.50;99.90;;;;;;5031329;28;20041;-61
2023/12/25 10:51:41;;;;;;;14.80;6.90;;;9.40;99.90;;;;;;5020423;28;20057;-60
2023/12/25 10:54:09;;;;;;;39.50;14.07;;;9.40;99.90;;;;;;5019440;28;20037;-60
2023/12/25 10:56:39;;;;;;;43.72;15.15;;;9.40;99.90;;;;;;5019135;28;20042;-61
2023/12/25 10:59:30;;;;;;;41.17;13.77;;;9.40;99.90;;;;;;5021265;28;20065;-61
2023/12/25 11:02:00;;;;;;;18.98;8.23;;;9.50;99.90;;;;;;5025289;28;20076;-60
2023/12/25 11:04:28;;;;;;;14.93;7.72;;;9.50;99.90;;;;;;5018047;28;20041;-61
2023/12/25 11:06:56;;;;;;;16.40;7.93;;;9.70;99.90;;;;;;5023397;28;20034;-58
2023/12/25 11:09:25;;;;;;;10.43;5.65;;;9.70;99.90;;;;;;5011594;28;20042;-59
2023/12/25 11:11:53;;;;;;;10.32;5.22;;;9.80;99.90;;;;;;5014310;28;20042;-59
2023/12/25 11:14:21;;;;;;;11.02;4.78;;;9.90;99.90;;;;;;5021551;28;20048;-60
2023/12/25 11:16:48;;;;;;;10.80;4.88;;;10.00;99.90;;;;;;5021815;28;20041;-61
2023/12/25 11:19:16;;;;;;;7.57;3.78;;;10.10;99.90;;;;;;5014970;28;20069;-60
2023/12/25 11:21:43;;;;;;;11.05;5.50;;;10.10;99.90;;;;;;5031328;28;20045;-56
2023/12/25 11:24:12;;;;;;;15.77;6.38;;;10.20;99.90;;;;;;5034617;28;20049;-60
2023/12/25 11:26:42;;;;;;;11.90;6.32;;;10.40;99.90;;;;;;5034517;28;20049;-62
2023/12/25 11:29:12;;;;;;;14.20;6.30;;;10.40;99.90;;;;;;5032905;28;20055;-58
2023/12/25 11:31:46;;;;;;;13.20;6.57;;;10.30;99.90;;;;;;5031476;28;20124;-60
2023/12/25 11:34:17;;;;;;;9.63;5.43;;;10.30;99.90;;;;;;5025670;28;20073;-58
2023/12/25 11:36:44;;;;;;;6.40;4.05;;;10.20;99.90;;;;;;5027587;28;20121;-57
2023/12/25 11:39:12;;;;;;;10.20;5.13;;;10.10;99.90;;;;;;5027857;28;20128;-60
2023/12/25 11:41:39;;;;;;;10.98;5.22;;;10.10;99.90;;;;;;5023723;28;20034;-58
2023/12/25 11:44:07;;;;;;;10.13;4.88;;;10.20;99.90;;;;;;5025552;28;20044;-58
2023/12/25 11:46:45;;;;;;;7.47;4.53;;;10.20;99.90;;;;;;5017977;28;20045;-61
2023/12/25 11:49:14;;;;;;;9.80;5.35;;;10.10;99.90;;;;;;5024537;28;20061;-60
2023/12/25 11:51:48;;;;;;;9.82;4.75;;;10.00;99.90;;;;;;5022021;28;20057;-59
2023/12/25 11:54:15;;;;;;;7.47;4.05;;;10.00;99.90;;;;;;5015325;28;20072;-60
2023/12/25 11:56:43;;;;;;;10.20;4.70;;;10.00;99.90;;;;;;5028513;28;20056;-58
2023/12/25 11:59:10;;;;;;;10.43;4.80;;;10.00;99.90;;;;;;5030368;28;20091;-59
2023/12/25 12:01:39;;;;;;;8.85;4.80;;;10.10;99.90;;;;;;5033203;28;20061;-60
2023/12/25 12:04:06;;;;;;;12.38;4.43;;;10.20;99.90;;;;;;5029739;28;20092;-59
2023/12/25 12:06:33;;;;;;;7.68;4.53;;;10.10;99.90;;;;;;5032076;28;20410;-61
2023/12/25 12:08:59;;;;;;;6.60;3.72;;;10.00;99.90;;;;;;5030084;28;20112;-60
2023/12/25 12:11:26;;;;;;;7.40;3.97;;;10.00;99.90;;;;;;5032312;28;20048;-61
2023/12/25 12:13:53;;;;;;;9.10;4.10;;;9.80;99.90;;;;;;5025339;28;20330;-59
2023/12/25 12:16:22;;;;;;;9.60;4.45;;;9.90;99.90;;;;;;5033237;28;20397;-60
2023/12/25 12:18:48;;;;;;;7.72;4.10;;;10.00;99.90;;;;;;5033088;28;20461;-61
2023/12/25 12:21:16;;;;;;;9.60;4.35;;;10.00;99.90;;;;;;5030845;28;20046;-62
2023/12/25 12:23:42;;;;;;;9.73;4.00;;;9.90;99.90;;;;;;5023480;28;20136;-60
2023/12/25 12:26:15;;;;;;;7.05;3.70;;;10.00;99.90;;;;;;5015080;28;20038;-61
2023/12/25 12:28:43;;;;;;;6.00;3.63;;;10.00;99.90;;;;;;5019620;28;20056;-61
2023/12/25 12:31:11;;;;;;;7.85;3.78;;;10.10;99.90;;;;;;5033164;28;20045;-61
2023/12/25 12:33:41;;;;;;;6.00;3.30;;;10.10;99.90;;;;;;5028577;28;20046;-60
2023/12/25 12:36:08;;;;;;;8.30;3.88;;;10.10;99.90;;;;;;5032856;28;20116;-61
2023/12/25 12:38:39;;;;;;;6.28;3.42;;;10.10;99.90;;;;;;5032661;28;20116;-61
2023/12/25 12:41:06;;;;;;;6.47;3.10;;;10.20;99.90;;;;;;5029291;28;20037;-61
2023/12/25 12:43:33;;;;;;;9.07;3.80;;;10.30;99.90;;;;;;5032903;28;20092;-58
2023/12/25 12:46:12;;;;;;;7.70;3.88;;;10.30;99.90;;;;;;5032862;28;21706;-61
2023/12/25 12:48:39;;;;;;;6.03;3.78;;;10.30;99.90;;;;;;5029924;28;20091;-61
2023/12/25 12:51:06;;;;;;;5.90;2.78;;;10.30;99.90;;;;;;5032475;28;20049;-61
2023/12/25 12:53:33;;;;;;;5.47;2.60;;;10.30;99.90;;;;;;5032951;28;20581;-61